Time;durP1;ratioP1;P1;durP2;ratioP2;P2;SDS_P1;SDS_P2;PMS_P1;PMS_P2;Temp;Humidity;BMP_temperature;BMP_pressure;BME280_temperature;BME280_humidity;BME280_pressure;Samples;Min_cycle;Max_cycle;Signal;HPM_P1;HPM_P2
2022/12/01 00:02:08;;;;;;;99.00;36.13;;;5.80;99.90;;;;;;5129916;28;20039;-49
2022/12/01 00:04:34;;;;;;;106.50;38.10;;;5.70;99.90;;;;;;5111484;28;20042;-51
2022/12/01 00:07:00;;;;;;;100.32;36.63;;;5.10;99.90;;;;;;5129706;28;20035;-48
2022/12/01 00:12:09;;;;;;;98.88;35.83;;;5.10;99.90;;;;;;5129770;28;20035;-48
2022/12/01 00:14:35;;;;;;;110.72;39.45;;;5.40;99.90;;;;;;5130120;28;20470;-48
2022/12/01 00:17:01;;;;;;;106.53;36.70;;;5.00;99.90;;;;;;5111606;28;20158;-49
2022/12/01 00:19:27;;;;;;;103.88;36.50;;;5.50;99.90;;;;;;5129238;28;20094;-48
2022/12/01 00:21:53;;;;;;;95.93;34.97;;;5.20;99.90;;;;;;5130240;27;20039;-49
2022/12/01 00:24:18;;;;;;;105.88;39.17;;;5.50;99.90;;;;;;5131063;27;20039;-48
2022/12/01 00:26:44;;;;;;;105.30;39.30;;;5.00;99.90;;;;;;5133688;27;20042;-47
2022/12/01 00:29:10;;;;;;;98.60;35.70;;;5.50;99.90;;;;;;5133401;27;20405;-47
2022/12/01 00:31:36;;;;;;;100.78;36.35;;;5.10;99.90;;;;;;5133083;27;20070;-49
2022/12/01 00:34:02;;;;;;;98.80;37.00;;;5.00;99.90;;;;;;5114688;27;20497;-49
2022/12/01 00:36:28;;;;;;;105.53;36.15;;;5.60;99.90;;;;;;5115093;27;20110;-51
2022/12/01 00:38:55;;;;;;;108.32;36.63;;;5.10;99.90;;;;;;5133444;27;20130;-48
2022/12/01 00:41:22;;;;;;;106.88;39.00;;;5.60;99.90;;;;;;5133177;27;20054;-52
2022/12/01 00:43:48;;;;;;;100.80;38.17;;;5.40;99.90;;;;;;5133460;27;20062;-50
2022/12/01 00:46:14;;;;;;;97.45;36.10;;;5.00;99.90;;;;;;5133226;27;20031;-52
2022/12/01 00:48:40;;;;;;;105.40;39.63;;;5.10;99.90;;;;;;5132216;27;20126;-48
2022/12/01 00:51:05;;;;;;;104.90;37.55;;;5.00;99.90;;;;;;5132765;27;20094;-48
2022/12/01 00:53:31;;;;;;;105.95;38.95;;;5.10;99.90;;;;;;5133048;27;20070;-46
2022/12/01 00:55:57;;;;;;;111.53;38.40;;;5.30;99.90;;;;;;5133138;27;20031;-47
2022/12/01 00:58:23;;;;;;;108.30;37.75;;;5.00;99.90;;;;;;5133093;27;20505;-46
2022/12/01 01:00:56;;;;;;;103.90;39.08;;;5.10;99.90;;;;;;5114601;27;20031;-46
2022/12/01 01:03:22;;;;;;;105.43;37.53;;;5.40;99.90;;;;;;5131189;27;20066;-48
2022/12/01 01:05:48;;;;;;;103.93;37.85;;;5.30;99.90;;;;;;5132842;27;20074;-46
2022/12/01 01:08:14;;;;;;;102.43;36.30;;;5.00;99.90;;;;;;5132554;27;20541;-46
2022/12/01 01:10:44;;;;;;;102.00;37.03;;;5.10;99.90;;;;;;5113958;27;20045;-48
2022/12/01 01:13:11;;;;;;;101.78;37.47;;;5.40;99.90;;;;;;5132650;27;20043;-47
2022/12/01 01:15:37;;;;;;;107.53;37.83;;;5.60;99.90;;;;;;5132351;27;20649;-46
2022/12/01 01:18:04;;;;;;;96.68;36.47;;;5.70;99.90;;;;;;5132170;27;20179;-46
2022/12/01 01:20:30;;;;;;;107.93;39.20;;;5.20;99.90;;;;;;5132285;27;20038;-46
2022/12/01 01:22:56;;;;;;;102.15;36.25;;;5.20;99.90;;;;;;5132333;27;20481;-46
2022/12/01 01:25:22;;;;;;;103.68;37.28;;;5.40;99.90;;;;;;5132282;27;20035;-49
2022/12/01 01:27:48;;;;;;;109.80;37.88;;;5.00;99.90;;;;;;5132399;27;20035;-49
2022/12/01 01:30:14;;;;;;;105.97;38.65;;;5.20;99.90;;;;;;5132377;27;20106;-46
2022/12/01 01:32:40;;;;;;;113.55;39.00;;;5.30;99.90;;;;;;5113872;27;20051;-46
2022/12/01 01:35:07;;;;;;;99.43;37.10;;;5.60;99.90;;;;;;5113507;27;20046;-47
2022/12/01 01:37:32;;;;;;;104.03;37.67;;;5.00;99.90;;;;;;5132190;27;20110;-47
2022/12/01 01:39:58;;;;;;;106.82;39.15;;;5.20;99.90;;;;;;5131892;27;20117;-47
2022/12/01 01:42:24;;;;;;;105.35;37.80;;;5.50;99.90;;;;;;5113473;27;20043;-50
2022/12/01 01:44:54;;;;;;;102.00;37.60;;;5.40;99.90;;;;;;5132169;27;20037;-49
2022/12/01 01:47:27;;;;;;;108.72;37.80;;;5.10;99.90;;;;;;5132338;27;20038;-49
2022/12/01 01:49:55;;;;;;;105.68;38.30;;;5.20;99.90;;;;;;5131438;27;20032;-51
2022/12/01 01:52:22;;;;;;;106.78;38.08;;;5.50;99.90;;;;;;5132195;27;20103;-45
2022/12/01 01:54:52;;;;;;;103.97;37.78;;;5.40;99.90;;;;;;5131733;27;20107;-47
2022/12/01 01:57:27;;;;;;;106.25;37.38;;;5.60;99.90;;;;;;5113501;27;20054;-48
2022/12/01 02:00:06;;;;;;;105.10;37.70;;;5.50;99.90;;;;;;5131896;27;20031;-46
2022/12/01 02:02:39;;;;;;;93.25;34.92;;;5.30;99.90;;;;;;5131510;27;20092;-48
2022/12/01 02:05:09;;;;;;;90.95;35.78;;;5.50;99.90;;;;;;5112946;27;20065;-50
2022/12/01 02:07:38;;;;;;;101.35;37.47;;;5.60;99.90;;;;;;5130430;27;20089;-51
2022/12/01 02:10:05;;;;;;;106.05;36.17;;;5.60;99.90;;;;;;5131420;27;20398;-50
2022/12/01 02:13:35;;;;;;;98.72;35.92;;;5.40;99.90;;;;;;5131021;27;20069;-49
2022/12/01 02:16:13;;;;;;;95.65;32.58;;;5.10;99.90;;;;;;4994635;28;20043;-49
2022/12/01 02:18:51;;;;;;;104.45;37.00;;;5.40;99.90;;;;;;5112609;27;20492;-50
2022/12/01 02:21:44;;;;;;;95.68;35.38;;;5.40;99.90;;;;;;5112518;27;20042;-48
2022/12/01 02:24:25;;;;;;;97.65;33.13;;;5.00;99.90;;;;;;5111842;27;20472;-49
2022/12/01 02:27:18;;;;;;;98.38;36.42;;;5.30;99.90;;;;;;5130928;27;20031;-47
2022/12/01 02:30:21;;;;;;;93.63;34.90;;;5.40;99.90;;;;;;5130720;27;20138;-46
2022/12/01 02:32:53;;;;;;;89.82;33.75;;;4.90;99.90;;;;;;5130684;27;20063;-49
2022/12/01 02:35:34;;;;;;;102.22;35.55;;;5.00;99.90;;;;;;5131145;27;20550;-48
2022/12/01 02:38:27;;;;;;;104.25;36.35;;;5.50;99.90;;;;;;5112690;27;20390;-48
2022/12/01 02:41:19;;;;;;;102.10;36.53;;;5.30;99.90;;;;;;5129878;27;20065;-51
2022/12/01 02:44:02;;;;;;;91.35;34.85;;;5.50;99.90;;;;;;5119716;27;20057;-50
2022/12/01 02:46:44;;;;;;;99.78;35.60;;;5.30;99.90;;;;;;5130337;27;20160;-47
2022/12/01 02:49:17;;;;;;;98.78;34.80;;;5.50;99.90;;;;;;5129324;27;20084;-46
2022/12/01 02:51:44;;;;;;;95.35;37.75;;;5.20;99.90;;;;;;5129530;27;20039;-46
2022/12/01 02:54:13;;;;;;;101.05;35.92;;;4.80;99.90;;;;;;5130881;27;20103;-48
2022/12/01 02:56:42;;;;;;;102.22;35.78;;;5.10;99.90;;;;;;5131258;27;20039;-47
2022/12/01 02:59:10;;;;;;;101.53;38.42;;;5.60;99.90;;;;;;5130946;27;20035;-50
2022/12/01 03:01:51;;;;;;;101.57;37.38;;;5.00;99.90;;;;;;5130071;27;20051;-49
2022/12/01 03:04:56;;;;;;;98.05;36.15;;;5.00;99.90;;;;;;5130704;27;20062;-49
2022/12/01 03:07:49;;;;;;;93.90;35.33;;;5.00;99.90;;;;;;5129963;27;20038;-47
2022/12/01 03:10:28;;;;;;;99.35;36.92;;;5.60;99.90;;;;;;5111059;27;20043;-50
2022/12/01 03:13:18;;;;;;;99.97;37.95;;;5.50;99.90;;;;;;5130549;27;20027;-51
2022/12/01 03:16:04;;;;;;;97.35;35.17;;;5.40;99.90;;;;;;5130246;27;20120;-49
2022/12/01 03:18:42;;;;;;;99.72;37.60;;;5.10;99.90;;;;;;5128781;27;20049;-47
2022/12/01 03:21:37;;;;;;;97.47;36.17;;;5.30;99.90;;;;;;5130474;27;20039;-48
2022/12/01 03:24:12;;;;;;;98.18;36.63;;;5.00;99.90;;;;;;5112123;27;20164;-50
2022/12/01 03:26:40;;;;;;;101.32;37.33;;;5.10;99.90;;;;;;5111606;28;20039;-48
2022/12/01 03:29:12;;;;;;;94.60;35.90;;;5.50;99.90;;;;;;5130238;28;20096;-48
2022/12/01 03:31:43;;;;;;;97.32;37.35;;;4.80;99.90;;;;;;5129898;28;20063;-49
2022/12/01 03:34:25;;;;;;;101.47;37.70;;;4.70;99.90;;;;;;5108243;28;20056;-47
2022/12/01 03:37:03;;;;;;;101.55;38.45;;;5.10;99.90;;;;;;5110000;28;20046;-48
2022/12/01 03:39:34;;;;;;;91.15;35.97;;;5.20;99.90;;;;;;5109633;28;20046;-48
2022/12/01 03:42:03;;;;;;;93.68;36.25;;;5.50;99.90;;;;;;5109793;28;20044;-47
2022/12/01 03:44:35;;;;;;;97.80;38.03;;;5.00;99.90;;;;;;5109532;28;20042;-45
2022/12/01 03:47:08;;;;;;;97.38;36.97;;;4.70;99.90;;;;;;5109725;28;20483;-46
2022/12/01 03:49:34;;;;;;;96.68;36.38;;;5.10;99.90;;;;;;5108294;28;20416;-47
2022/12/01 03:52:32;;;;;;;91.90;36.08;;;5.20;99.90;;;;;;5110190;28;20027;-47
2022/12/01 03:55:16;;;;;;;92.60;37.72;;;5.30;99.90;;;;;;5092079;28;20082;-48
2022/12/01 03:57:58;;;;;;;99.75;37.03;;;5.30;99.90;;;;;;5109685;28;20039;-46
2022/12/01 04:00:24;;;;;;;92.28;36.88;;;5.20;99.90;;;;;;5112142;28;20048;-47
2022/12/01 04:02:58;;;;;;;100.88;35.03;;;4.90;99.90;;;;;;5113795;28;20062;-47
2022/12/01 04:05:25;;;;;;;98.90;36.65;;;4.80;99.90;;;;;;5114033;28;20044;-51
2022/12/01 04:07:51;;;;;;;92.95;36.58;;;5.50;99.90;;;;;;5113966;28;20137;-52
2022/12/01 04:10:17;;;;;;;101.80;38.65;;;5.10;99.90;;;;;;5113136;28;20063;-50
2022/12/01 04:12:43;;;;;;;94.38;39.17;;;5.20;99.90;;;;;;5112878;28;20071;-47
2022/12/01 04:15:13;;;;;;;100.78;38.67;;;4.90;99.90;;;;;;5113195;28;20035;-50
2022/12/01 04:17:42;;;;;;;97.65;38.05;;;5.70;99.90;;;;;;5111582;28;20414;-49
2022/12/01 04:20:09;;;;;;;88.97;35.35;;;5.10;99.90;;;;;;5110529;28;20051;-50
2022/12/01 04:22:35;;;;;;;95.95;36.13;;;5.40;99.90;;;;;;5112802;28;20043;-48
2022/12/01 04:25:01;;;;;;;94.15;38.22;;;5.00;99.90;;;;;;5113108;28;20035;-47
2022/12/01 04:27:27;;;;;;;88.28;37.05;;;5.40;99.90;;;;;;5113008;28;20039;-48
2022/12/01 04:29:52;;;;;;;88.78;35.42;;;5.20;99.90;;;;;;5113305;28;20103;-48
2022/12/01 04:32:18;;;;;;;95.63;36.78;;;5.10;99.90;;;;;;5113644;27;20043;-47
2022/12/01 04:34:44;;;;;;;92.70;36.35;;;5.10;99.90;;;;;;5114653;27;20401;-49
2022/12/01 04:37:10;;;;;;;100.15;37.20;;;4.70;99.90;;;;;;5133541;27;20378;-48
2022/12/01 04:39:37;;;;;;;90.07;35.75;;;5.20;99.90;;;;;;5133388;27;20110;-50
2022/12/01 04:42:03;;;;;;;92.70;35.50;;;4.90;99.90;;;;;;5132936;27;20035;-50
2022/12/01 04:44:29;;;;;;;88.72;34.67;;;4.60;99.90;;;;;;5133069;27;20042;-48
2022/12/01 04:46:55;;;;;;;88.50;35.72;;;4.60;99.90;;;;;;5132995;27;20031;-49
2022/12/01 04:49:21;;;;;;;92.45;34.42;;;4.60;99.90;;;;;;5132731;27;20036;-47
2022/12/01 04:51:47;;;;;;;88.30;33.70;;;5.00;99.90;;;;;;5133445;27;20373;-49
2022/12/01 04:54:14;;;;;;;84.43;33.40;;;4.80;99.90;;;;;;5133084;27;20046;-48
2022/12/01 04:56:40;;;;;;;88.20;34.63;;;4.80;99.90;;;;;;5132998;27;20470;-48
2022/12/01 04:59:06;;;;;;;91.60;35.58;;;4.40;99.90;;;;;;5132945;27;20034;-51
2022/12/01 05:01:31;;;;;;;92.10;34.60;;;4.40;99.90;;;;;;5132768;27;20049;-47
2022/12/01 05:03:57;;;;;;;92.22;34.83;;;4.90;99.90;;;;;;5114271;27;20039;-45
2022/12/01 05:06:26;;;;;;;91.13;35.00;;;5.00;99.90;;;;;;5114142;27;20039;-46
2022/12/01 05:08:55;;;;;;;93.15;34.63;;;5.00;99.90;;;;;;5132252;27;20137;-46
2022/12/01 05:11:20;;;;;;;87.68;35.22;;;4.50;99.90;;;;;;5132856;27;20039;-48
2022/12/01 05:13:47;;;;;;;92.22;34.45;;;4.80;99.90;;;;;;5132516;27;20035;-47
2022/12/01 05:16:22;;;;;;;95.50;35.20;;;4.70;99.90;;;;;;5113935;27;20084;-47
2022/12/01 05:18:49;;;;;;;;;;;4.90;99.90;;;;;;5132869;27;20042;-47
2022/12/01 05:21:14;;;;;;;91.60;32.22;;;4.30;99.90;;;;;;5132562;27;20379;-48
2022/12/01 05:23:40;;;;;;;91.95;33.75;;;5.00;99.90;;;;;;5132488;27;20060;-46
2022/12/01 05:26:07;;;;;;;90.53;34.28;;;4.80;99.90;;;;;;5132445;27;20082;-48
2022/12/01 05:28:34;;;;;;;90.20;34.08;;;4.70;99.90;;;;;;5132536;27;20031;-48
2022/12/01 05:30:59;;;;;;;93.72;37.05;;;4.90;99.90;;;;;;5132166;27;20137;-46
2022/12/01 05:33:26;;;;;;;98.18;35.60;;;4.20;99.90;;;;;;5131991;27;20138;-52
2022/12/01 05:35:52;;;;;;;93.72;34.88;;;5.00;99.90;;;;;;5132481;27;20127;-48
2022/12/01 05:38:18;;;;;;;100.68;36.55;;;5.30;99.90;;;;;;5132184;27;20109;-49
2022/12/01 05:40:55;;;;;;;97.75;37.35;;;5.00;99.90;;;;;;5132275;27;20092;-49
2022/12/01 05:43:22;;;;;;;98.40;36.65;;;4.40;99.90;;;;;;5131956;27;20096;-46
2022/12/01 05:45:48;;;;;;;87.13;34.25;;;4.70;99.90;;;;;;5131643;27;20118;-51
2022/12/01 05:48:16;;;;;;;90.22;35.40;;;4.80;99.90;;;;;;5131488;27;20038;-51
2022/12/01 05:50:42;;;;;;;89.22;36.33;;;4.90;99.90;;;;;;5079618;27;20130;-49
2022/12/01 05:53:10;;;;;;;96.22;36.70;;;5.60;99.90;;;;;;5131364;27;20127;-47
2022/12/01 05:55:36;;;;;;;91.60;36.15;;;4.50;99.90;;;;;;5131885;27;20117;-50
2022/12/01 05:58:02;;;;;;;95.32;36.22;;;5.30;99.90;;;;;;5131661;27;20118;-45
2022/12/01 06:00:27;;;;;;;86.57;34.92;;;4.50;99.90;;;;;;5131391;27;20038;-49
2022/12/01 06:02:53;;;;;;;97.55;35.85;;;5.20;99.90;;;;;;5131596;27;20042;-49
2022/12/01 06:05:19;;;;;;;95.65;36.20;;;4.90;99.90;;;;;;5131771;27;20035;-46
2022/12/01 06:07:45;;;;;;;91.63;36.03;;;4.90;99.90;;;;;;5131574;27;20045;-46
2022/12/01 06:10:11;;;;;;;89.20;34.28;;;4.60;99.90;;;;;;5131576;27;20036;-50
2022/12/01 06:12:37;;;;;;;90.22;36.33;;;4.70;99.90;;;;;;5131640;27;20355;-46
2022/12/01 06:15:03;;;;;;;98.68;36.50;;;4.70;99.90;;;;;;5131627;27;20027;-47
2022/12/01 06:17:29;;;;;;;104.85;37.75;;;4.40;99.90;;;;;;5131181;27;20035;-48
2022/12/01 06:19:55;;;;;;;91.15;36.83;;;4.60;99.90;;;;;;5129854;27;20046;-48
2022/12/01 06:22:21;;;;;;;98.78;38.38;;;4.50;99.90;;;;;;5131663;27;20031;-46
2022/12/01 06:24:46;;;;;;;97.82;36.35;;;5.10;99.90;;;;;;5131991;27;20126;-48
2022/12/01 06:27:12;;;;;;;97.50;36.17;;;4.70;99.90;;;;;;5131547;27;20454;-46
2022/12/01 06:29:38;;;;;;;100.20;38.53;;;4.80;99.90;;;;;;5130871;27;20096;-49
2022/12/01 06:32:04;;;;;;;101.13;36.58;;;5.50;99.90;;;;;;5112506;27;20403;-46
2022/12/01 06:34:29;;;;;;;101.97;37.63;;;4.60;99.90;;;;;;5130729;27;20043;-47
2022/12/01 06:36:55;;;;;;;102.00;37.60;;;4.80;99.90;;;;;;5112220;27;20134;-50
2022/12/01 06:39:21;;;;;;;99.25;37.38;;;5.10;99.90;;;;;;5096131;27;20031;-47
2022/12/01 06:41:46;;;;;;;96.65;37.03;;;4.80;99.90;;;;;;5113305;27;20386;-49
2022/12/01 06:44:12;;;;;;;100.68;36.92;;;4.90;99.90;;;;;;5130943;27;20073;-47
2022/12/01 06:46:38;;;;;;;93.10;37.25;;;4.60;99.90;;;;;;5130778;27;20035;-46
2022/12/01 06:49:04;;;;;;;107.55;39.53;;;4.90;99.90;;;;;;5130449;27;20052;-47
2022/12/01 06:51:32;;;;;;;92.85;35.67;;;4.80;99.90;;;;;;5130386;27;20063;-46
2022/12/01 06:53:58;;;;;;;102.30;38.92;;;5.10;99.90;;;;;;5131249;27;20043;-46
2022/12/01 06:56:24;;;;;;;109.70;40.40;;;4.60;99.90;;;;;;5130729;27;20371;-47
2022/12/01 06:58:50;;;;;;;109.78;40.35;;;4.70;99.90;;;;;;5130968;27;20533;-49
2022/12/01 07:01:16;;;;;;;102.65;39.72;;;4.70;99.90;;;;;;5130558;27;20122;-49
2022/12/01 07:03:42;;;;;;;104.07;37.85;;;4.50;99.90;;;;;;5130105;27;20094;-51
2022/12/01 07:06:08;;;;;;;100.03;37.38;;;5.00;99.90;;;;;;5130622;27;20035;-47
2022/12/01 07:08:34;;;;;;;102.95;39.40;;;4.70;99.90;;;;;;5130494;27;20039;-46
2022/12/01 07:11:09;;;;;;;103.53;39.72;;;4.90;99.90;;;;;;5130330;27;20444;-50
2022/12/01 07:13:35;;;;;;;103.53;39.05;;;4.80;99.90;;;;;;5130478;27;20034;-46
2022/12/01 07:16:02;;;;;;;109.72;39.58;;;4.90;99.90;;;;;;5130290;27;20084;-50
2022/12/01 07:18:28;;;;;;;105.45;38.75;;;5.10;99.90;;;;;;5111705;27;20031;-49
2022/12/01 07:20:59;;;;;;;103.10;39.30;;;4.60;99.90;;;;;;5130544;27;20081;-48
2022/12/01 07:23:24;;;;;;;103.55;37.33;;;5.40;99.90;;;;;;5130245;27;20036;-47
2022/12/01 07:26:16;;;;;;;99.32;36.03;;;4.70;99.90;;;;;;5130010;27;20050;-47
2022/12/01 07:28:43;;;;;;;103.63;35.63;;;4.70;99.90;;;;;;5129683;28;20050;-49
2022/12/01 07:31:11;;;;;;;99.88;35.78;;;4.30;99.90;;;;;;5131478;27;20047;-45
2022/12/01 07:33:37;;;;;;;93.55;35.05;;;4.60;99.90;;;;;;5136330;27;20061;-49
2022/12/01 07:36:04;;;;;;;93.88;34.08;;;4.60;99.90;;;;;;5137841;27;20067;-47
2022/12/01 07:38:31;;;;;;;89.60;34.65;;;4.40;99.90;;;;;;5117155;27;20047;-45
2022/12/01 07:41:08;;;;;;;87.22;33.15;;;3.70;99.90;;;;;;5137210;27;20516;-46
2022/12/01 07:43:35;;;;;;;88.75;32.63;;;4.20;99.90;;;;;;5136734;27;20431;-51
2022/12/01 07:46:12;;;;;;;99.93;33.40;;;3.80;99.90;;;;;;5137151;27;20046;-49
2022/12/01 07:48:39;;;;;;;92.78;34.10;;;3.80;99.90;;;;;;5136530;27;20410;-48
2022/12/01 07:51:06;;;;;;;93.72;34.78;;;3.40;99.90;;;;;;5137556;27;20043;-46
2022/12/01 07:53:31;;;;;;;97.97;35.08;;;3.70;99.90;;;;;;5137036;27;20046;-46
2022/12/01 07:55:58;;;;;;;97.40;32.92;;;3.70;99.90;;;;;;5136829;27;20381;-47
2022/12/01 07:58:24;;;;;;;92.32;32.85;;;4.20;99.90;;;;;;5136999;27;20035;-47
2022/12/01 08:00:49;;;;;;;96.25;33.40;;;4.20;99.90;;;;;;5136739;27;20493;-48
2022/12/01 08:03:15;;;;;;;94.22;35.90;;;4.30;99.90;;;;;;5136711;27;20031;-48
2022/12/01 08:05:41;;;;;;;100.13;34.50;;;4.10;99.90;;;;;;5137442;27;20039;-47
2022/12/01 08:08:06;;;;;;;102.53;34.55;;;3.70;99.90;;;;;;5118757;27;20045;-48
2022/12/01 08:10:32;;;;;;;101.28;34.60;;;3.80;99.90;;;;;;5136651;27;20045;-49
2022/12/01 08:12:58;;;;;;;98.05;35.22;;;4.20;99.90;;;;;;5136724;27;20031;-50
2022/12/01 08:15:23;;;;;;;109.45;35.15;;;3.50;99.90;;;;;;5136864;27;20034;-49
2022/12/01 08:17:49;;;;;;;106.20;34.33;;;3.70;99.90;;;;;;5118597;27;20039;-48
2022/12/01 08:20:15;;;;;;;99.28;35.75;;;3.80;99.90;;;;;;5132727;27;20075;-47
2022/12/01 08:22:41;;;;;;;115.35;36.22;;;4.10;99.90;;;;;;5109526;27;20439;-47
2022/12/01 08:25:07;;;;;;;115.28;37.00;;;3.40;99.90;;;;;;5131016;27;20390;-47
2022/12/01 08:27:34;;;;;;;112.43;37.78;;;4.30;99.90;;;;;;5133145;27;20066;-48
2022/12/01 08:30:00;;;;;;;116.72;38.38;;;3.70;99.90;;;;;;5135451;27;20047;-48
2022/12/01 08:32:25;;;;;;;130.43;39.67;;;3.70;99.90;;;;;;5136306;27;20078;-50
2022/12/01 08:34:51;;;;;;;121.38;39.60;;;4.30;99.90;;;;;;5132122;27;20081;-48
2022/12/01 08:37:17;;;;;;;124.05;38.40;;;3.70;99.90;;;;;;5133747;27;20031;-46
2022/12/01 08:39:42;;;;;;;131.13;40.00;;;3.70;99.90;;;;;;5134295;27;20054;-48
2022/12/01 08:42:08;;;;;;;119.85;39.58;;;3.50;99.90;;;;;;5134268;27;20039;-46
2022/12/01 08:44:34;;;;;;;120.72;39.67;;;4.30;99.90;;;;;;5130284;27;20046;-47
2022/12/01 08:46:59;;;;;;;122.22;39.53;;;3.90;99.90;;;;;;5131410;27;20085;-50
2022/12/01 08:49:25;;;;;;;120.65;39.58;;;3.70;99.90;;;;;;5110144;27;20044;-47
2022/12/01 08:51:51;;;;;;;133.50;42.42;;;3.90;99.90;;;;;;5123261;27;20063;-47
2022/12/01 08:54:17;;;;;;;132.85;41.45;;;4.40;99.90;;;;;;5125224;27;20386;-46
2022/12/01 08:56:44;;;;;;;113.10;40.95;;;4.40;99.90;;;;;;5123710;27;20034;-45
2022/12/01 08:59:10;;;;;;;123.18;39.20;;;4.70;99.90;;;;;;5122751;27;20103;-49
2022/12/01 09:01:51;;;;;;;121.05;40.17;;;4.70;99.90;;;;;;5127916;27;20040;-47
2022/12/01 09:04:21;;;;;;;130.00;41.67;;;4.20;99.90;;;;;;5125392;27;20086;-45
2022/12/01 09:06:49;;;;;;;129.15;42.13;;;4.10;99.90;;;;;;5121561;27;20735;-49
2022/12/01 09:09:20;;;;;;;116.95;37.55;;;3.90;99.90;;;;;;5128263;27;20459;-47
2022/12/01 09:11:47;;;;;;;117.18;37.95;;;4.00;99.90;;;;;;5121631;27;20051;-46
2022/12/01 09:14:14;;;;;;;117.32;39.08;;;4.10;99.90;;;;;;5109786;27;20136;-50
2022/12/01 09:16:42;;;;;;;112.15;38.78;;;4.30;99.90;;;;;;5107184;27;20495;-47
2022/12/01 09:19:08;;;;;;;111.28;37.80;;;3.70;99.90;;;;;;5105580;27;20043;-46
2022/12/01 09:21:36;;;;;;;113.82;38.63;;;4.20;99.90;;;;;;5127289;27;20612;-46
2022/12/01 09:24:05;;;;;;;114.60;39.67;;;4.20;99.90;;;;;;5118791;27;20073;-46
2022/12/01 09:26:31;;;;;;;115.70;38.42;;;4.50;99.90;;;;;;5126322;27;20118;-48
2022/12/01 09:29:00;;;;;;;121.55;39.80;;;3.90;99.90;;;;;;5126094;27;20052;-48
2022/12/01 09:31:26;;;;;;;115.88;39.55;;;3.80;99.90;;;;;;5109032;27;20068;-46
2022/12/01 09:34:05;;;;;;;120.47;38.58;;;4.40;99.90;;;;;;5127736;27;20125;-46
2022/12/01 09:36:32;;;;;;;124.13;42.03;;;4.70;99.90;;;;;;5124224;27;20074;-47
2022/12/01 09:38:58;;;;;;;122.15;40.88;;;4.00;99.90;;;;;;5107407;27;20431;-46
2022/12/01 09:41:44;;;;;;;120.07;39.08;;;4.40;99.90;;;;;;5126643;27;20046;-46
2022/12/01 09:44:20;;;;;;;111.18;36.95;;;4.80;99.90;;;;;;5121186;27;20031;-46
2022/12/01 09:46:51;;;;;;;107.32;36.95;;;4.70;99.90;;;;;;5125999;27;20039;-48
2022/12/01 09:49:34;;;;;;;103.75;36.90;;;4.10;99.90;;;;;;5121363;27;20131;-49
2022/12/01 09:52:00;;;;;;;108.00;38.42;;;4.60;99.90;;;;;;5121450;27;20042;-47
2022/12/01 09:54:28;;;;;;;115.47;38.72;;;4.90;99.90;;;;;;5124428;27;20474;-45
2022/12/01 09:56:54;;;;;;;105.22;38.40;;;5.00;99.90;;;;;;5104943;27;20028;-48
2022/12/01 09:59:23;;;;;;;106.47;41.10;;;5.20;99.90;;;;;;5126194;27;20046;-48
2022/12/01 10:02:01;;;;;;;101.18;41.05;;;5.20;99.90;;;;;;5123004;27;20047;-50
2022/12/01 10:04:45;;;;;;;108.90;38.95;;;5.20;99.90;;;;;;5125637;27;20042;-48
2022/12/01 10:07:24;;;;;;;93.57;38.40;;;5.40;99.90;;;;;;5125691;27;20035;-48
2022/12/01 10:10:00;;;;;;;85.93;37.28;;;5.50;99.90;;;;;;5122713;27;20520;-52
2022/12/01 10:12:31;;;;;;;79.60;37.38;;;5.20;99.90;;;;;;5120020;27;20037;-49
2022/12/01 10:15:17;;;;;;;70.65;34.53;;;5.30;99.90;;;;;;5124592;27;20178;-52
2022/12/01 10:18:01;;;;;;;70.22;34.95;;;5.70;99.90;;;;;;5121686;27;20030;-47
2022/12/01 10:20:51;;;;;;;71.88;33.67;;;6.10;99.90;;;;;;5122802;27;20035;-47
2022/12/01 10:23:25;;;;;;;72.68;33.35;;;5.70;99.90;;;;;;5121288;27;20050;-48
2022/12/01 10:26:19;;;;;;;70.85;34.03;;;6.40;99.90;;;;;;5121782;27;20087;-50
2022/12/01 10:29:06;;;;;;;68.50;33.50;;;5.80;99.90;;;;;;5122810;27;20054;-50
2022/12/01 10:31:40;;;;;;;70.47;35.55;;;5.90;99.90;;;;;;5119474;27;20047;-48
2022/12/01 10:34:21;;;;;;;76.05;37.60;;;6.40;99.90;;;;;;5104967;27;20087;-46
2022/12/01 10:36:47;;;;;;;73.57;34.97;;;6.40;99.90;;;;;;5120712;27;20055;-49
2022/12/01 10:39:22;;;;;;;70.32;34.58;;;6.80;99.90;;;;;;5125334;27;20035;-52
2022/12/01 10:41:49;;;;;;;68.53;34.67;;;6.60;99.90;;;;;;5120145;27;20489;-51
2022/12/01 10:44:17;;;;;;;70.32;35.55;;;6.80;99.90;;;;;;5123193;27;20533;-50
2022/12/01 10:46:48;;;;;;;72.90;35.15;;;6.70;99.90;;;;;;5104227;27;20487;-51
2022/12/01 10:49:16;;;;;;;70.70;35.05;;;6.60;99.90;;;;;;5099640;27;20075;-49
2022/12/01 10:51:52;;;;;;;68.53;34.10;;;6.90;99.90;;;;;;5120344;27;20042;-47
2022/12/01 10:54:19;;;;;;;67.32;34.45;;;7.00;99.90;;;;;;5128193;27;21199;-51
2022/12/01 10:56:48;;;;;;;68.30;33.03;;;7.20;99.90;;;;;;5126605;27;20035;-46
2022/12/01 10:59:29;;;;;;;70.55;34.28;;;6.80;99.90;;;;;;5109692;27;20038;-49
2022/12/01 11:01:56;;;;;;;77.70;37.17;;;7.10;99.90;;;;;;5126945;27;20051;-50
2022/12/01 11:04:44;;;;;;;68.43;35.38;;;6.90;99.90;;;;;;5109152;27;20039;-51
2022/12/01 11:07:34;;;;;;;67.80;35.25;;;7.00;99.90;;;;;;5127621;27;20401;-50
2022/12/01 11:10:11;;;;;;;73.03;34.70;;;7.20;99.90;;;;;;5126758;27;20377;-47
2022/12/01 11:12:37;;;;;;;69.70;33.88;;;7.20;99.90;;;;;;5126274;27;20031;-48
2022/12/01 11:15:04;;;;;;;65.63;33.17;;;7.40;99.90;;;;;;5109841;27;20437;-49
2022/12/01 11:17:39;;;;;;;60.10;31.90;;;;;;;;;;5122982;27;20039;-48
2022/12/01 11:20:35;;;;;;;58.10;31.10;;;7.80;99.90;;;;;;5121703;27;20043;-48
2022/12/01 11:23:25;;;;;;;58.28;30.15;;;8.00;99.90;;;;;;5122381;27;20092;-49
2022/12/01 11:26:08;;;;;;;55.45;29.65;;;8.40;99.90;;;;;;5122635;27;20432;-48
2022/12/01 11:28:36;;;;;;;55.10;29.23;;;8.50;99.90;;;;;;5120543;27;20035;-47
2022/12/01 11:31:07;;;;;;;55.22;29.35;;;8.70;99.90;;;;;;5125189;28;20047;-46
2022/12/01 11:33:54;;;;;;;58.75;29.48;;;8.70;99.90;;;;;;5127474;28;20075;-46
2022/12/01 11:36:29;;;;;;;53.90;29.85;;;8.90;99.90;;;;;;5127439;28;20031;-49
2022/12/01 11:38:56;;;;;;;;;;;9.10;99.90;;;;;;5127398;28;20061;-47
2022/12/01 11:41:39;;;;;;;45.03;25.92;;;9.00;99.90;;;;;;5127343;28;19922;-48
2022/12/01 11:44:18;;;;;;;46.67;26.08;;;9.20;99.90;;;;;;5127029;28;20091;-49
2022/12/01 11:46:44;;;;;;;46.22;26.25;;;9.20;99.90;;;;;;5127261;28;20036;-48
2022/12/01 11:49:19;;;;;;;44.92;25.58;;;9.30;99.90;;;;;;5127309;28;20103;-47
2022/12/01 11:51:45;;;;;;;44.40;25.45;;;9.00;99.90;;;;;;5128485;28;20035;-47
2022/12/01 11:54:17;;;;;;;45.40;25.67;;;9.10;99.90;;;;;;5111060;28;20355;-47
2022/12/01 11:56:45;;;;;;;42.72;24.60;;;9.10;99.90;;;;;;5129734;28;20039;-47
2022/12/01 11:59:16;;;;;;;45.95;26.55;;;9.00;99.90;;;;;;5130230;28;20035;-48
2022/12/01 12:01:54;;;;;;;45.40;25.30;;;9.20;99.90;;;;;;5130068;28;20466;-49
2022/12/01 12:04:48;;;;;;;43.88;25.33;;;9.10;99.90;;;;;;5129130;28;20027;-48
2022/12/01 12:07:46;;;;;;;44.83;26.37;;;9.00;99.90;;;;;;5129726;28;20036;-49
2022/12/01 12:10:36;;;;;;;43.97;25.95;;;9.10;99.90;;;;;;5130102;28;20070;-49
2022/12/01 12:13:20;;;;;;;38.78;23.52;;;9.10;99.90;;;;;;5128545;28;20066;-47
2022/12/01 12:16:01;;;;;;;38.70;24.17;;;9.40;99.90;;;;;;5130446;28;20541;-49
2022/12/01 12:18:35;;;;;;;36.72;23.42;;;9.00;99.90;;;;;;5112142;27;20073;-48
2022/12/01 12:21:16;;;;;;;38.25;22.98;;;8.90;99.90;;;;;;5133575;27;20042;-49
2022/12/01 12:24:11;;;;;;;37.17;22.17;;;8.90;99.90;;;;;;5133834;27;20134;-47
2022/12/01 12:27:21;;;;;;;37.83;22.80;;;8.80;99.90;;;;;;5115556;27;20043;-47
2022/12/01 12:29:52;;;;;;;37.90;23.40;;;8.80;99.90;;;;;;5132747;27;20039;-50
2022/12/01 12:32:53;;;;;;;38.42;23.15;;;9.10;99.90;;;;;;5132268;27;20027;-48
2022/12/01 12:35:29;;;;;;;39.38;23.58;;;9.20;99.90;;;;;;5132842;27;20498;-48
2022/12/01 12:38:26;;;;;;;39.05;24.63;;;9.40;99.90;;;;;;5114444;27;20039;-48
2022/12/01 12:40:52;;;;;;;35.55;22.85;;;9.50;99.90;;;;;;5133417;27;20121;-48
2022/12/01 12:43:39;;;;;;;38.33;24.58;;;9.60;99.90;;;;;;5133385;27;20118;-47
2022/12/01 12:46:15;;;;;;;37.72;23.38;;;9.40;99.90;;;;;;5114465;27;20047;-48
2022/12/01 12:49:28;;;;;;;35.58;24.48;;;9.50;99.90;;;;;;5133314;27;20488;-50
2022/12/01 12:52:23;;;;;;;37.65;23.55;;;9.10;99.90;;;;;;5133424;27;20114;-49
2022/12/01 12:54:56;;;;;;;38.55;23.25;;;8.80;99.90;;;;;;5129398;27;20051;-48
2022/12/01 12:57:29;;;;;;;39.83;25.75;;;8.60;99.90;;;;;;5133430;27;20165;-49
2022/12/01 13:00:17;;;;;;;38.92;24.23;;;8.70;99.90;;;;;;5132833;27;20099;-48